Time;durP1;ratioP1;P1;durP2;ratioP2;P2;SDS_P1;SDS_P2;PMS_P1;PMS_P2;Temp;Humidity;BMP_temperature;BMP_pressure;BME280_temperature;BME280_humidity;BME280_pressure;Samples;Min_cycle;Max_cycle;Signal;HPM_P1;HPM_P2
2022/11/27 00:01:58;;;;;;;11.10;8.97;;;;;;;6.92;100.00;102700.38;6093259;29;20236;-80
2022/11/27 00:05:19;;;;;;;17.17;8.50;;;;;;;6.82;100.00;102693.69;6098317;29;20228;-78
2022/11/27 00:08:40;;;;;;;11.30;7.83;;;;;;;6.91;100.00;102687.91;6087957;29;20232;-80
2022/11/27 00:12:02;;;;;;;17.63;8.10;;;;;;;6.82;100.00;102688.34;6101217;29;20233;-78
2022/11/27 00:15:23;;;;;;;8.77;6.37;;;;;;;6.83;100.00;102692.75;6110754;28;20614;-80
2022/11/27 00:18:45;;;;;;;13.73;7.93;;;;;;;6.73;100.00;102696.75;6074634;29;20619;-79
2022/11/27 00:22:06;;;;;;;10.63;7.40;;;;;;;6.74;100.00;102698.53;6099330;28;20236;-79
2022/11/27 00:25:27;;;;;;;6.40;5.80;;;;;;;6.62;100.00;102699.91;6100782;28;20239;-79
2022/11/27 00:28:49;;;;;;;11.40;10.27;;;;;;;6.60;100.00;102696.44;6082543;29;20273;-80
2022/11/27 00:32:11;;;;;;;24.33;8.20;;;;;;;6.59;100.00;102701.84;6101329;29;20236;-78
2022/11/27 00:35:32;;;;;;;10.17;8.23;;;;;;;6.56;100.00;102699.28;6089606;29;20240;-80
2022/11/27 00:38:53;;;;;;;11.63;6.73;;;;;;;6.52;100.00;102708.41;6079950;28;20240;-79
2022/11/27 00:42:14;;;;;;;9.30;6.07;;;;;;;6.51;100.00;102714.72;6099652;29;20281;-79
2022/11/27 00:45:35;;;;;;;11.80;6.40;;;;;;;6.60;100.00;102716.97;6102951;29;20744;-78
2022/11/27 00:48:57;;;;;;;10.40;7.20;;;;;;;6.62;100.00;102717.78;6089649;29;20248;-78
2022/11/27 00:52:18;;;;;;;7.00;5.80;;;;;;;6.63;100.00;102723.09;6099220;29;20241;-79
2022/11/27 00:55:39;;;;;;;11.07;5.97;;;;;;;6.56;100.00;102720.72;6093874;29;20257;-79
2022/11/27 00:59:00;;;;;;;10.30;7.60;;;;;;;6.59;100.00;102718.81;6093905;29;20240;-77
2022/11/27 01:02:22;;;;;;;10.80;4.50;;;;;;;6.64;100.00;102721.28;6105935;29;20221;-78
2022/11/27 01:05:43;;;;;;;8.13;4.97;;;;;;;6.71;100.00;102720.09;6098795;29;20235;-79
2022/11/27 01:09:05;;;;;;;10.37;6.40;;;;;;;6.74;100.00;102717.28;6088991;28;20232;-79
2022/11/27 01:12:25;;;;;;;9.83;7.23;;;;;;;6.68;100.00;102718.41;6098906;29;20225;-80
2022/11/27 01:15:46;;;;;;;10.20;6.13;;;;;;;6.72;100.00;102716.44;6088722;29;20327;-79
2022/11/27 01:19:10;;;;;;;9.13;5.53;;;;;;;6.72;100.00;102709.28;6081286;29;20786;-79
2022/11/27 01:22:32;;;;;;;12.63;5.47;;;;;;;6.58;100.00;102705.47;6105602;29;20236;-79
2022/11/27 01:25:54;;;;;;;7.73;4.93;;;;;;;6.42;100.00;102708.78;6121749;28;20819;-79
2022/11/27 01:29:15;;;;;;;8.63;4.93;;;;;;;6.42;100.00;102698.06;6099411;28;20769;-78
2022/11/27 01:32:36;;;;;;;7.33;5.90;;;;;;;6.54;100.00;102698.50;6093472;29;20236;-78
2022/11/27 01:36:00;;;;;;;7.87;6.27;;;;;;;6.47;100.00;102694.34;6105858;28;20239;-79
2022/11/27 01:39:22;;;;;;;11.07;5.60;;;;;;;6.37;100.00;102689.38;6104491;28;20227;-78
2022/11/27 01:42:43;;;;;;;11.97;6.67;;;;;;;6.23;100.00;102680.19;6064753;29;20276;-78
2022/11/27 01:46:05;;;;;;;8.63;5.50;;;;;;;6.26;100.00;102682.72;6104959;29;20235;-80
2022/11/27 01:49:34;;;;;;;8.93;5.40;;;;;;;6.21;100.00;102677.56;6101139;29;20805;-79
2022/11/27 01:53:00;;;;;;;7.17;4.77;;;;;;;6.22;100.00;102668.59;6103648;28;20236;-79
2022/11/27 01:56:23;;;;;;;9.17;4.67;;;;;;;6.18;100.00;102663.44;6095638;29;20229;-78
2022/11/27 01:59:46;;;;;;;7.13;5.30;;;;;;;6.11;100.00;102667.31;6093428;29;20554;-79
2022/11/27 02:03:07;;;;;;;10.47;5.10;;;;;;;6.12;100.00;102666.34;6099224;29;20557;-79
2022/11/27 02:06:29;;;;;;;8.93;4.53;;;;;;;6.19;100.00;102660.72;6095230;29;20451;-80
2022/11/27 02:09:51;;;;;;;8.40;5.30;;;;;;;6.29;100.00;102662.06;6090379;29;20688;-77
2022/11/27 02:13:17;;;;;;;11.60;6.27;;;;;;;6.12;100.00;102663.69;6092859;29;20610;-79
2022/11/27 02:16:46;;;;;;;8.83;7.00;;;;;;;6.08;100.00;102662.06;6108179;28;20334;-79
2022/11/27 02:20:22;;;;;;;10.70;5.83;;;;;;;6.03;100.00;102658.72;6100936;28;20500;-80
2022/11/27 02:24:26;;;;;;;7.53;4.10;;;;;;;5.92;100.00;102655.63;6111263;28;20236;-79
2022/11/27 02:28:05;;;;;;;8.43;4.63;;;;;;;5.83;100.00;102654.16;6093162;28;20240;-79
2022/11/27 02:31:36;;;;;;;10.73;6.37;;;;;;;5.81;100.00;102658.69;6103558;29;20349;-79
2022/11/27 02:35:04;;;;;;;5.97;3.80;;;;;;;5.81;100.00;102657.81;6090688;29;20239;-78
2022/11/27 02:38:30;;;;;;;7.00;4.93;;;;;;;5.87;100.00;102657.59;6097595;29;20227;-78
2022/11/27 02:41:58;;;;;;;11.23;5.20;;;;;;;5.86;100.00;102658.53;6096129;29;20310;-78
2022/11/27 02:45:24;;;;;;;11.47;6.27;;;;;;;5.74;100.00;102648.31;6108361;28;20375;-79
2022/11/27 02:48:49;;;;;;;6.17;4.13;;;;;;;5.61;100.00;102656.81;6092398;29;20240;-80
2022/11/27 02:52:12;;;;;;;6.93;5.40;;;;;;;5.62;100.00;102655.88;6100532;28;20240;-79
2022/11/27 02:55:36;;;;;;;7.40;4.83;;;;;;;5.59;100.00;102656.00;6089522;29;20834;-79
2022/11/27 02:59:01;;;;;;;6.60;5.33;;;;;;;5.61;100.00;102662.16;6091387;29;20228;-79
2022/11/27 03:02:29;;;;;;;8.20;4.90;;;;;;;5.51;100.00;102659.91;6083028;29;20236;-80
2022/11/27 03:05:55;;;;;;;7.50;5.23;;;;;;;5.50;100.00;102658.19;6091774;29;20236;-80
2022/11/27 03:09:21;;;;;;;9.83;4.67;;;;;;;5.48;100.00;102671.63;6105665;28;20260;-79
2022/11/27 03:12:42;;;;;;;7.67;6.27;;;;;;;5.40;100.00;102667.50;6105893;28;20229;-79
2022/11/27 03:16:12;;;;;;;8.33;6.83;;;;;;;5.46;100.00;102667.25;6112106;28;20240;-79
2022/11/27 03:19:42;;;;;;;5.63;4.60;;;;;;;5.37;100.00;102667.59;6085663;29;20228;-79
2022/11/27 03:23:04;;;;;;;8.10;5.57;;;;;;;5.40;100.00;102659.47;6112261;28;20505;-79
2022/11/27 03:26:26;;;;;;;6.90;5.10;;;;;;;5.28;100.00;102660.78;6105903;28;20862;-80
2022/11/27 03:29:51;;;;;;;7.47;5.37;;;;;;;5.25;100.00;102660.94;6095970;28;20236;-79
2022/11/27 03:33:12;;;;;;;5.60;4.93;;;;;;;5.20;100.00;102670.91;6093210;29;20827;-81
2022/11/27 03:36:33;;;;;;;5.27;3.87;;;;;;;5.24;100.00;102658.28;6112590;28;20610;-80
2022/11/27 03:39:56;;;;;;;7.10;6.13;;;;;;;5.19;100.00;102647.81;6108747;28;20238;-79
2022/11/27 03:43:23;;;;;;;6.90;4.50;;;;;;;5.10;100.00;102660.63;6097926;29;20619;-80
2022/11/27 03:46:52;;;;;;;8.00;5.47;;;;;;;5.03;100.00;102659.97;6097582;29;20957;-81
2022/11/27 03:50:26;;;;;;;6.47;5.27;;;;;;;4.96;100.00;102660.28;6092660;29;20232;-79
2022/11/27 03:53:56;;;;;;;7.13;5.30;;;;;;;4.86;100.00;102651.69;6093224;29;20228;-79
2022/11/27 03:57:23;;;;;;;6.00;4.97;;;;;;;4.99;100.00;102641.44;6092760;29;20240;-79
2022/11/27 04:00:46;;;;;;;5.77;4.63;;;;;;;4.72;100.00;102646.00;6072247;29;20525;-80
2022/11/27 04:04:07;;;;;;;6.77;4.90;;;;;;;4.89;100.00;102648.94;6094373;28;20301;-80
2022/11/27 04:07:28;;;;;;;8.60;4.97;;;;;;;4.84;100.00;102642.88;6097331;28;20225;-80
2022/11/27 04:10:49;;;;;;;8.17;5.27;;;;;;;4.74;100.00;102645.03;6091888;29;20310;-80
2022/11/27 04:14:11;;;;;;;11.00;5.43;;;;;;;4.59;100.00;102642.06;6085766;29;21181;-80
2022/11/27 04:17:32;;;;;;;12.73;4.10;;;;;;;4.55;100.00;102637.72;6099629;29;22767;-79
2022/11/27 04:20:53;;;;;;;8.90;4.30;;;;;;;4.53;100.00;102627.09;6086371;29;20240;-79
2022/11/27 04:24:14;;;;;;;9.73;5.13;;;;;;;4.57;100.00;102633.19;6097886;28;20314;-79
2022/11/27 04:27:35;;;;;;;6.03;4.33;;;;;;;4.63;100.00;102635.66;6103632;28;20236;-80
2022/11/27 04:30:58;;;;;;;8.87;4.90;;;;;;;4.45;100.00;102642.53;6097592;29;20263;-79
2022/11/27 04:34:19;;;;;;;5.63;4.57;;;;;;;4.52;100.00;102641.41;6088498;29;20225;-79
2022/11/27 04:37:39;;;;;;;6.23;4.27;;;;;;;4.52;100.00;102643.19;6112020;28;20248;-78
2022/11/27 04:41:01;;;;;;;12.30;6.50;;;;;;;4.36;100.00;102631.31;6095834;29;20224;-79
2022/11/27 04:44:21;;;;;;;13.77;5.90;;;;;;;4.37;100.00;102636.59;6080068;29;20232;-79
2022/11/27 04:47:44;;;;;;;6.97;4.90;;;;;;;4.36;100.00;102631.31;6105454;29;20224;-79
2022/11/27 04:51:05;;;;;;;8.03;5.83;;;;;;;4.24;100.00;102624.56;6095912;29;20331;-79
2022/11/27 04:54:26;;;;;;;14.50;6.00;;;;;;;4.35;100.00;102621.53;6085763;29;20246;-79
2022/11/27 04:57:47;;;;;;;9.00;5.03;;;;;;;4.20;100.00;102620.28;6095612;28;20232;-80
2022/11/27 05:01:08;;;;;;;7.33;5.90;;;;;;;4.27;100.00;102612.94;6102297;29;20239;-79
2022/11/27 05:04:31;;;;;;;9.97;6.13;;;;;;;4.08;100.00;102602.03;6077199;29;20244;-79
2022/11/27 05:07:52;;;;;;;5.30;4.80;;;;;;;4.01;100.00;102593.34;6120437;28;20237;-78
2022/11/27 05:11:15;;;;;;;8.47;5.87;;;;;;;4.10;100.00;102585.94;6109679;28;20651;-79
2022/11/27 05:14:36;;;;;;;10.30;5.90;;;;;;;4.08;100.00;102583.34;6087047;29;20352;-79
2022/11/27 05:17:57;;;;;;;8.07;5.33;;;;;;;3.89;100.00;102577.78;6103603;29;20245;-78
2022/11/27 05:21:19;;;;;;;11.77;6.80;;;;;;;3.98;100.00;102569.44;6093429;28;20252;-79
2022/11/27 05:24:41;;;;;;;10.63;5.77;;;;;;;4.04;100.00;102563.03;6105708;28;20227;-79
2022/11/27 05:28:02;;;;;;;8.23;6.57;;;;;;;4.10;100.00;102560.16;6115618;28;20240;-79
2022/11/27 05:31:23;;;;;;;8.60;6.40;;;;;;;4.10;100.00;102556.59;6093462;29;20248;-80
2022/11/27 05:34:44;;;;;;;11.97;6.77;;;;;;;4.05;100.00;102557.63;6099431;28;20231;-80
2022/11/27 05:38:06;;;;;;;9.97;5.90;;;;;;;4.16;100.00;102556.38;6115435;28;20239;-80
2022/11/27 05:41:28;;;;;;;8.53;5.23;;;;;;;4.15;100.00;102547.53;6090009;29;20244;-79
2022/11/27 05:44:48;;;;;;;10.97;8.03;;;;;;;4.17;100.00;102544.78;6094706;29;20232;-81
2022/11/27 05:48:10;;;;;;;10.13;6.53;;;;;;;4.03;100.00;102532.81;6102358;28;20309;-80
2022/11/27 05:51:32;;;;;;;10.43;7.30;;;;;;;3.91;100.00;102535.03;6089691;29;20315;-80
2022/11/27 05:54:55;;;;;;;10.97;6.07;;;;;;;3.89;100.00;102550.22;6082206;29;20235;-80
2022/11/27 05:58:16;;;;;;;8.97;6.77;;;;;;;3.85;100.00;102551.25;6112519;28;20236;-80
2022/11/27 06:01:37;;;;;;;6.57;5.93;;;;;;;3.92;100.00;102550.97;6095808;28;20232;-79
2022/11/27 06:04:58;;;;;;;8.33;6.53;;;;;;;3.66;100.00;102559.00;6091630;29;20232;-79
2022/11/27 06:08:19;;;;;;;7.83;5.73;;;;;;;3.67;100.00;102565.22;6103112;28;20615;-79
2022/11/27 06:11:41;;;;;;;8.80;6.77;;;;;;;3.64;100.00;102565.31;6100075;29;20331;-78
2022/11/27 06:15:03;;;;;;;14.07;6.90;;;;;;;3.77;100.00;102561.31;6079139;29;20228;-78
2022/11/27 06:18:24;;;;;;;9.80;7.27;;;;;;;3.79;100.00;102556.78;6091180;29;20237;-79
2022/11/27 06:21:45;;;;;;;16.17;8.20;;;;;;;3.79;100.00;102548.78;6101524;28;20221;-77
2022/11/27 06:25:06;;;;;;;10.67;7.67;;;;;;;3.70;100.00;102560.63;6106403;28;20236;-78
2022/11/27 06:28:28;;;;;;;10.27;8.73;;;;;;;3.66;100.00;102567.00;6104792;28;20228;-79
2022/11/27 06:31:49;;;;;;;9.37;6.80;;;;;;;3.60;100.00;102555.66;6099813;28;20227;-79
2022/11/27 06:35:11;;;;;;;12.20;6.13;;;;;;;3.62;100.00;102553.81;6099023;28;20233;-80
2022/11/27 06:38:33;;;;;;;7.80;5.17;;;;;;;3.61;100.00;102541.41;6094085;29;20737;-80
2022/11/27 06:41:54;;;;;;;7.03;6.33;;;;;;;3.43;100.00;102531.34;6107037;28;20232;-80
2022/11/27 06:45:16;;;;;;;14.47;6.77;;;;;;;3.46;100.00;102534.81;6098434;28;20702;-79
2022/11/27 06:48:36;;;;;;;11.10;6.87;;;;;;;3.48;100.00;102530.28;6097567;29;20330;-80
2022/11/27 06:51:58;;;;;;;9.97;8.50;;;;;;;3.51;100.00;102530.16;6107670;28;20224;-80
2022/11/27 06:55:19;;;;;;;11.40;6.70;;;;;;;3.48;100.00;102526.75;6087537;29;20229;-78
2022/11/27 06:58:40;;;;;;;9.10;6.40;;;;;;;3.53;100.00;102522.13;6092445;29;20244;-80
2022/11/27 07:02:02;;;;;;;11.90;6.47;;;;;;;3.44;100.00;102518.00;6094393;29;20527;-79
2022/11/27 07:05:24;;;;;;;10.30;7.43;;;;;;;3.55;100.00;102514.94;6097894;29;20224;-78
2022/11/27 07:08:46;;;;;;;10.70;5.07;;;;;;;3.46;100.00;102524.13;6105657;28;20224;-80
2022/11/27 07:12:08;;;;;;;9.80;6.63;;;;;;;3.53;100.00;102531.00;6089220;29;20316;-80
2022/11/27 07:15:28;;;;;;;14.93;7.07;;;;;;;3.44;100.00;102533.09;6095565;29;20235;-80
2022/11/27 07:18:52;;;;;;;7.00;5.80;;;;;;;3.32;100.00;102520.19;6093660;28;20239;-81
2022/11/27 07:22:15;;;;;;;10.73;8.20;;;;;;;3.36;100.00;102527.16;6099062;28;20251;-81
2022/11/27 07:25:37;;;;;;;10.00;5.80;;;;;;;3.37;100.00;102520.88;6100402;29;20244;-80
2022/11/27 07:28:58;;;;;;;13.23;6.67;;;;;;;3.39;100.00;102525.25;6084610;29;20237;-81
2022/11/27 07:32:19;;;;;;;6.13;5.23;;;;;;;3.50;100.00;102523.13;6100842;29;20237;-79
2022/11/27 07:35:41;;;;;;;12.23;7.50;;;;;;;3.53;99.84;102517.66;6110069;28;20236;-80
2022/11/27 07:39:02;;;;;;;14.60;7.90;;;;;;;3.67;99.73;102512.72;6088597;29;20266;-80
2022/11/27 07:42:23;;;;;;;7.17;6.53;;;;;;;3.53;99.51;102519.44;6114595;28;20229;-79
2022/11/27 07:45:44;;;;;;;5.43;4.70;;;;;;;3.51;99.65;102514.19;6102982;28;20237;-80
2022/11/27 07:49:05;;;;;;;10.57;5.60;;;;;;;3.62;99.57;102504.03;6087342;29;20607;-80
2022/11/27 07:52:27;;;;;;;8.17;4.67;;;;;;;3.70;98.90;102509.09;6102885;28;20232;-81
2022/11/27 07:55:48;;;;;;;8.93;6.30;;;;;;;3.78;98.29;102499.03;6106011;29;20244;-80
2022/11/27 07:59:09;;;;;;;9.90;5.70;;;;;;;3.79;97.93;102491.00;6088712;29;20311;-79
2022/11/27 08:02:30;;;;;;;8.90;6.30;;;;;;;3.89;98.04;102486.19;6089086;29;20245;-81
2022/11/27 08:05:52;;;;;;;7.87;6.77;;;;;;;4.40;96.42;102481.63;6098640;29;20307;-79
2022/11/27 08:09:14;;;;;;;9.63;5.80;;;;;;;4.73;93.23;102487.50;6091977;29;20239;-80
2022/11/27 08:12:35;;;;;;;8.03;4.63;;;;;;;5.68;89.71;102475.53;6114106;28;20232;-80
2022/11/27 08:15:58;;;;;;;9.60;6.30;;;;;;;5.24;89.78;102473.84;6091295;29;20571;-80
2022/11/27 08:19:20;;;;;;;7.73;4.47;;;;;;;7.04;82.79;102472.81;6088222;29;20236;-80
2022/11/27 08:22:41;;;;;;;8.77;5.20;;;;;;;8.42;76.57;102463.84;6123364;28;20310;-80
2022/11/27 08:26:06;;;;;;;5.83;3.50;;;;;;;9.14;74.09;102452.59;6096956;28;20240;-80
2022/11/27 08:29:27;;;;;;;6.00;4.20;;;;;;;10.76;66.28;102460.56;6082886;29;20251;-80
2022/11/27 08:32:48;;;;;;;8.37;4.37;;;;;;;10.37;67.59;102463.94;6099809;29;20276;-80
2022/11/27 08:36:10;;;;;;;4.77;4.30;;;;;;;11.16;64.63;102465.06;6113409;28;20236;-80
2022/11/27 08:39:30;;;;;;;4.30;3.90;;;;;;;10.45;66.10;102458.06;6080672;29;20244;-81
2022/11/27 08:42:53;;;;;;;3.50;3.20;;;;;;;7.28;76.01;102456.47;6116541;28;20522;-80
2022/11/27 08:46:13;;;;;;;9.27;4.80;;;;;;;6.08;82.24;102453.25;6079069;29;20332;-79
2022/11/27 08:49:34;;;;;;;6.77;4.60;;;;;;;6.10;83.87;102444.22;6095832;28;20597;-78
2022/11/27 08:52:57;;;;;;;6.07;3.80;;;;;;;5.91;85.70;102437.97;6093804;29;20232;-80
2022/11/27 08:56:19;;;;;;;4.43;3.40;;;;;;;5.56;86.69;102427.91;6089793;28;20239;-79
2022/11/27 08:59:42;;;;;;;7.00;3.60;;;;;;;5.39;87.48;102425.06;6096943;28;20247;-80
2022/11/27 09:03:03;;;;;;;6.07;4.50;;;;;;;5.46;88.47;102418.53;6097418;29;20264;-79
2022/11/27 09:06:27;;;;;;;7.83;6.77;;;;;;;5.14;88.86;102427.91;6082384;29;20227;-80
2022/11/27 09:09:48;;;;;;;6.73;4.27;;;;;;;5.10;89.64;102433.44;6087809;29;20673;-79
2022/11/27 09:13:09;;;;;;;7.87;4.30;;;;;;;5.04;89.68;102431.91;6089637;28;20651;-78
2022/11/27 09:16:31;;;;;;;7.50;4.40;;;;;;;5.84;88.19;102423.09;6096743;29;20229;-80
2022/11/27 09:19:52;;;;;;;9.97;5.27;;;;;;;6.27;85.32;102422.03;6094616;29;20231;-79
2022/11/27 09:23:13;;;;;;;6.63;5.00;;;;;;;7.32;82.38;102425.84;6116087;28;20322;-78
2022/11/27 09:26:34;;;;;;;3.63;3.23;;;;;;;7.44;78.00;102438.63;6080433;29;20229;-78
2022/11/27 09:29:54;;;;;;;5.23;4.37;;;;;;;7.45;79.60;102435.03;6090818;28;20240;-76
2022/11/27 09:33:16;;;;;;;4.50;3.60;;;;;;;5.84;84.12;102435.63;6098514;29;20812;-78
2022/11/27 09:36:37;;;;;;;4.73;4.30;;;;;;;6.19;84.47;102413.50;6107391;28;20237;-77
2022/11/27 09:39:59;;;;;;;5.07;3.67;;;;;;;5.78;84.91;102409.13;6102102;28;20351;-77
2022/11/27 09:43:29;;;;;;;4.17;3.57;;;;;;;6.12;85.54;102391.50;6098741;29;20224;-78
2022/11/27 09:46:51;;;;;;;4.80;4.33;;;;;;;7.36;80.47;102371.97;6081973;29;20295;-78
2022/11/27 09:50:17;;;;;;;4.07;3.53;;;;;;;9.07;73.72;102371.41;6100710;28;20227;-77
2022/11/27 09:53:46;;;;;;;4.17;3.30;;;;;;;11.17;65.79;102358.84;6094258;29;20240;-77
2022/11/27 09:57:15;;;;;;;5.33;4.83;;;;;;;11.13;63.75;102359.16;6099886;28;20541;-77
2022/11/27 10:00:36;;;;;;;3.40;2.67;;;;;;;10.95;65.31;102366.63;6097678;29;20353;-78
2022/11/27 10:03:58;;;;;;;5.00;3.20;;;;;;;8.91;70.86;102351.72;6083883;28;20231;-77
2022/11/27 10:07:32;;;;;;;4.90;3.30;;;;;;;7.55;77.07;102356.63;6114791;29;20240;-78
2022/11/27 10:11:06;;;;;;;10.97;4.37;;;;;;;6.59;82.01;102362.47;6103239;29;20323;-77
2022/11/27 10:14:36;;;;;;;7.40;4.93;;;;;;;6.08;85.23;102365.81;6101556;28;20235;-77
2022/11/27 10:18:02;;;;;;;4.67;3.43;;;;;;;5.91;86.42;102368.38;6093700;29;20275;-78
2022/11/27 10:21:31;;;;;;;7.70;4.37;;;;;;;6.00;86.60;102367.97;6111868;28;20236;-79
2022/11/27 10:25:11;;;;;;;4.77;3.80;;;;;;;6.10;86.01;102371.94;6100028;28;20293;-79
2022/11/27 10:28:38;;;;;;;6.23;4.27;;;;;;;6.00;85.76;102383.16;6092366;29;20228;-78
2022/11/27 10:32:03;;;;;;;4.13;3.50;;;;;;;6.07;86.86;102371.25;6098798;29;20232;-78
2022/11/27 10:35:26;;;;;;;3.13;2.93;;;;;;;6.60;84.55;102363.31;6106413;28;20243;-79
2022/11/27 10:38:48;;;;;;;4.33;3.50;;;;;;;6.44;84.35;102356.06;6093522;28;20236;-77
2022/11/27 10:42:16;;;;;;;7.17;4.00;;;;;;;6.92;82.83;102346.53;6090286;29;20236;-82
2022/11/27 10:45:44;;;;;;;3.80;2.90;;;;;;;7.32;80.79;102346.25;6095593;29;21006;-78
2022/11/27 10:49:05;;;;;;;5.80;4.10;;;;;;;7.34;81.09;102352.41;6092697;28;24980;-77
2022/11/27 10:52:26;;;;;;;8.20;5.20;;;;;;;7.85;80.24;102349.66;6107217;28;20260;-78
2022/11/27 10:56:01;;;;;;;5.27;3.90;;;;;;;8.76;76.57;102348.09;6083932;29;20237;-79
2022/11/27 10:59:27;;;;;;;4.53;3.60;;;;;;;9.40;73.77;102349.69;6107634;28;20268;-78
2022/11/27 11:02:49;;;;;;;3.93;3.63;;;;;;;8.89;74.08;102350.09;6105414;29;20233;-77
2022/11/27 11:06:17;;;;;;;6.10;4.03;;;;;;;8.43;75.29;102347.31;6083373;29;20498;-77
2022/11/27 11:09:47;;;;;;;3.60;3.30;;;;;;;8.08;78.18;102348.38;6091196;29;20263;-77
2022/11/27 11:13:18;;;;;;;4.50;3.30;;;;;;;7.63;79.55;102351.75;6108296;28;20243;-78
2022/11/27 11:16:44;;;;;;;4.63;3.27;;;;;;;7.40;81.55;102343.16;6095883;29;20240;-77
2022/11/27 11:20:15;;;;;;;4.73;4.27;;;;;;;7.32;82.32;102334.66;6100786;28;20649;-78
2022/11/27 11:23:39;;;;;;;6.60;4.53;;;;;;;7.06;83.40;102327.94;6098539;28;20508;-79
2022/11/27 11:27:03;;;;;;;4.20;3.80;;;;;;;6.95;83.97;102325.78;6100599;28;20232;-77
2022/11/27 11:30:27;;;;;;;6.00;4.90;;;;;;;6.93;84.51;102324.13;6101494;29;20302;-77
2022/11/27 11:33:56;;;;;;;4.80;4.33;;;;;;;6.72;85.96;102327.88;6098801;29;20232;-76
2022/11/27 11:37:23;;;;;;;5.30;4.37;;;;;;;6.61;86.07;102325.75;6079046;29;20267;-79
2022/11/27 11:40:58;;;;;;;7.13;3.90;;;;;;;6.70;86.70;102311.00;6096003;29;20245;-77
2022/11/27 11:44:24;;;;;;;4.87;3.90;;;;;;;6.84;86.39;102300.50;6090441;29;20243;-77
2022/11/27 11:47:46;;;;;;;5.37;3.83;;;;;;;6.76;85.53;102292.81;6104551;29;20228;-77
2022/11/27 11:51:17;;;;;;;8.73;4.43;;;;;;;6.98;85.30;102295.28;6104372;28;20235;-77
2022/11/27 11:54:48;;;;;;;4.67;3.80;;;;;;;6.68;87.20;102283.44;6092671;29;20315;-77
2022/11/27 11:58:39;;;;;;;4.37;3.97;;;;;;;6.61;87.11;102287.38;6098942;29;20507;-78
2022/11/27 12:02:34;;;;;;;4.67;3.63;;;;;;;6.61;87.24;102273.97;6093412;29;20228;-77
2022/11/27 12:06:06;;;;;;;4.33;3.90;;;;;;;6.69;87.23;102266.44;6094916;28;20227;-76
2022/11/27 12:09:39;;;;;;;4.00;3.57;;;;;;;6.71;87.38;102259.16;6085861;29;20235;-76
2022/11/27 12:13:11;;;;;;;4.40;4.00;;;;;;;6.69;87.71;102247.66;6098032;29;20232;-76
2022/11/27 12:16:41;;;;;;;5.80;4.67;;;;;;;6.68;87.31;102259.31;6096054;29;20236;-78
2022/11/27 12:20:13;;;;;;;4.23;3.50;;;;;;;6.82;87.35;102248.78;6094968;29;20255;-77
2022/11/27 12:23:50;;;;;;;7.07;3.70;;;;;;;6.58;87.79;102255.38;6097647;28;20236;-76
2022/11/27 12:27:23;;;;;;;6.10;4.23;;;;;;;6.69;87.61;102253.03;6094258;29;20228;-77
2022/11/27 12:30:54;;;;;;;5.57;4.97;;;;;;;6.69;87.78;102245.88;6089242;29;20215;-77
2022/11/27 12:34:26;;;;;;;5.10;3.87;;;;;;;6.82;87.51;102246.09;6086959;29;20343;-76
2022/11/27 12:38:00;;;;;;;8.77;2.87;;;;;;;6.83;87.56;102239.78;6102339;29;20532;-75
2022/11/27 12:41:44;;;;;;;5.93;3.87;;;;;;;6.90;87.25;102235.84;6104522;28;20236;-77
2022/11/27 12:45:17;;;;;;;3.60;3.30;;;;;;;6.72;86.81;102228.72;6090356;29;20244;-78
2022/11/27 12:48:43;;;;;;;9.83;4.40;;;;;;;6.56;88.08;102222.44;6095899;29;20319;-77
2022/11/27 12:52:11;;;;;;;7.87;4.50;;;;;;;6.69;87.65;102226.22;6095127;29;20244;-77
2022/11/27 12:55:33;;;;;;;12.63;4.90;;;;;;;6.61;88.46;102201.66;6091659;29;20511;-77
2022/11/27 12:59:00;;;;;;;5.33;4.33;;;;;;;6.64;87.69;102201.47;6085639;29;20236;-78
2022/11/27 13:02:28;;;;;;;7.33;3.83;;;;;;;6.62;88.00;102195.31;6105226;29;20232;-77
2022/11/27 13:05:54;;;;;;;5.97;4.27;;;;;;;6.64;88.19;102196.13;6097956;28;20227;-77
2022/11/27 13:09:20;;;;;;;4.33;4.03;;;;;;;6.71;88.06;102201.09;6096447;28;20665;-77
2022/11/27 13:12:46;;;;;;;4.50;3.73;;;;;;;6.51;88.63;102185.16;6095018;29;20248;-76
2022/11/27 13:16:14;;;;;;;9.87;4.03;;;;;;;6.64;88.88;102185.41;6104884;28;20585;-78
2022/11/27 13:19:43;;;;;;;5.33;4.13;;;;;;;6.67;88.47;102183.44;6086832;29;20234;-76
2022/11/27 13:23:04;;;;;;;7.70;4.17;;;;;;;6.61;88.39;102180.22;6099436;29;20327;-77
2022/11/27 13:26:31;;;;;;;6.87;3.83;;;;;;;6.57;88.67;102182.16;6105444;28;20293;-78
2022/11/27 13:29:55;;;;;;;5.33;4.50;;;;;;;6.55;89.25;102180.53;6078798;29;20255;-76
2022/11/27 13:33:29;;;;;;;4.33;3.97;;;;;;;6.48;89.50;102177.28;6100284;29;20244;-78
2022/11/27 13:36:58;;;;;;;7.40;4.77;;;;;;;6.41;89.80;102173.19;6105953;28;20776;-77
2022/11/27 13:40:23;;;;;;;5.70;3.10;;;;;;;6.47;89.80;102166.66;6091913;29;20251;-77
2022/11/27 13:43:47;;;;;;;5.40;3.27;;;;;;;6.45;90.19;102166.72;6095337;29;20269;-78
2022/11/27 13:47:13;;;;;;;5.40;4.50;;;;;;;6.45;89.78;102158.69;6099066;29;20239;-77
2022/11/27 13:50:43;;;;;;;4.67;3.60;;;;;;;6.62;89.52;102163.19;6085664;29;20224;-77
2022/11/27 13:54:10;;;;;;;7.17;4.07;;;;;;;6.58;89.36;102151.75;6089716;29;20234;-77
2022/11/27 13:57:33;;;;;;;4.10;3.70;;;;;;;6.50;90.04;102148.63;6112383;28;20242;-77
2022/11/27 14:00:53;;;;;;;4.77;3.67;;;;;;;6.38;90.67;102141.22;6114838;28;20236;-78
2022/11/27 14:04:14;;;;;;;5.60;4.77;;;;;;;6.43;90.94;102137.34;6083766;29;20248;-77
2022/11/27 14:07:37;;;;;;;9.03;4.23;;;;;;;6.48;90.87;102139.78;6105214;29;20240;-77
2022/11/27 14:11:04;;;;;;;5.63;4.87;;;;;;;6.57;90.25;102133.09;6115479;28;20231;-77
2022/11/27 14:14:26;;;;;;;6.73;5.43;;;;;;;6.62;89.72;102121.19;6093092;29;20247;-77
2022/11/27 14:17:50;;;;;;;7.60;4.13;;;;;;;6.53;90.17;102120.81;6103446;29;20236;-76
2022/11/27 14:21:24;;;;;;;7.30;3.93;;;;;;;6.64;89.40;102115.75;6098379;29;20241;-76
2022/11/27 14:24:54;;;;;;;3.37;3.07;;;;;;;6.66;89.82;102113.84;6109377;28;20274;-77
2022/11/27 14:28:20;;;;;;;6.97;5.17;;;;;;;6.63;89.45;102122.94;6101419;28;20229;-77
2022/11/27 14:31:43;;;;;;;5.53;4.73;;;;;;;6.56;89.86;102123.31;6101075;29;20725;-76
2022/11/27 14:35:04;;;;;;;5.87;3.97;;;;;;;6.55;89.83;102125.13;6096543;28;20351;-77
2022/11/27 14:38:27;;;;;;;5.07;4.57;;;;;;;6.65;90.16;102115.69;6099516;29;20603;-77
2022/11/27 14:41:56;;;;;;;7.60;5.47;;;;;;;6.55;89.96;102116.25;6088150;29;20240;-77
2022/11/27 14:45:20;;;;;;;5.53;4.43;;;;;;;6.50;89.76;102110.25;6109521;29;20231;-77
2022/11/27 14:48:44;;;;;;;8.33;4.17;;;;;;;6.54;89.69;102114.50;6097380;28;20240;-77
2022/11/27 14:52:11;;;;;;;5.77;3.63;;;;;;;6.57;89.64;102107.16;6096614;29;20237;-77
2022/11/27 14:55:32;;;;;;;5.47;4.37;;;;;;;6.41;89.77;102104.44;6081158;29;20229;-77
2022/11/27 14:58:55;;;;;;;4.80;4.00;;;;;;;6.48;90.20;102104.97;6100547;28;20736;-77
2022/11/27 15:02:19;;;;;;;5.80;4.00;;;;;;;6.56;89.88;102094.72;6110172;29;20236;-77
2022/11/27 15:05:40;;;;;;;6.73;4.87;;;;;;;6.66;89.45;102095.09;6080230;29;20236;-77
2022/11/27 15:09:01;;;;;;;7.03;4.33;;;;;;;6.53;89.06;102094.03;6089660;29;20267;-76
2022/11/27 15:12:26;;;;;;;5.97;4.90;;;;;;;6.54;89.64;102082.34;6100033;29;20248;-77
2022/11/27 15:15:56;;;;;;;3.87;3.43;;;;;;;6.47;89.99;102069.28;6093828;29;20251;-77
2022/11/27 15:19:25;;;;;;;6.63;3.60;;;;;;;6.43;90.45;102078.44;6089676;29;20226;-77
2022/11/27 15:22:50;;;;;;;5.80;4.27;;;;;;;6.47;90.28;102072.94;6095330;29;20232;-77
2022/11/27 15:26:13;;;;;;;10.13;4.33;;;;;;;6.41;90.83;102066.06;6101676;28;20228;-76
2022/11/27 15:29:36;;;;;;;5.37;3.57;;;;;;;6.23;91.25;102061.66;6089791;28;20232;-77
2022/11/27 15:32:57;;;;;;;5.87;3.77;;;;;;;6.24;91.29;102074.09;6095789;29;20240;-78
2022/11/27 15:36:21;;;;;;;4.37;3.30;;;;;;;6.27;91.16;102057.88;6106890;28;20633;-78
2022/11/27 15:39:47;;;;;;;5.07;4.10;;;;;;;6.21;91.10;102066.25;6085171;29;20710;-78
2022/11/27 15:43:12;;;;;;;4.40;4.00;;;;;;;6.28;91.17;102048.88;6102576;28;20637;-81
2022/11/27 15:46:34;;;;;;;7.27;3.47;;;;;;;6.19;90.85;102055.63;6070789;29;20237;-77
2022/11/27 15:49:56;;;;;;;3.97;3.57;;;;;;;6.20;91.23;102045.75;6079844;29;20226;-77
2022/11/27 15:53:18;;;;;;;3.70;3.40;;;;;;;6.19;90.64;102036.88;6094701;29;20228;-75